Time;durP1;ratioP1;P1;durP2;ratioP2;P2;SDS_P1;SDS_P2;PMS_P1;PMS_P2;Temp;Humidity;BMP_temperature;BMP_pressure;BME280_temperature;BME280_humidity;BME280_pressure;Samples;Min_cycle;Max_cycle;Signal;HPM_P1;HPM_P2
2022/03/15 00:00:11;;;;;;;16.03;11.10;;;4.00;99.90;;;;;;5081374;28;20461;-61
2022/03/15 00:02:40;;;;;;;20.17;12.23;;;4.00;99.90;;;;;;5090183;28;20537;-61
2022/03/15 00:05:12;;;;;;;22.20;13.40;;;4.00;99.90;;;;;;5100817;28;20537;-61
2022/03/15 00:07:52;;;;;;;30.80;18.67;;;4.00;99.90;;;;;;5101131;28;20495;-60
2022/03/15 00:10:22;;;;;;;24.90;14.53;;;3.90;1.00;;;;;;5081352;28;20515;-61
2022/03/15 00:12:56;;;;;;;15.47;11.73;;;4.00;1.00;;;;;;5080756;28;20457;-60
2022/03/15 00:15:32;;;;;;;15.37;10.90;;;3.90;1.00;;;;;;5080241;28;20529;-61
2022/03/15 00:18:02;;;;;;;16.60;11.23;;;3.90;1.00;;;;;;5081088;28;20456;-60
2022/03/15 00:20:31;;;;;;;13.53;10.90;;;3.90;1.00;;;;;;5084507;28;20456;-61
2022/03/15 00:23:04;;;;;;;24.37;19.40;;;3.90;1.00;;;;;;5097915;28;20800;-61
2022/03/15 00:25:31;;;;;;;26.30;21.50;;;3.80;1.00;;;;;;5100070;28;20793;-61
2022/03/15 00:27:59;;;;;;;16.90;11.67;;;3.80;1.00;;;;;;5100603;28;20481;-61
2022/03/15 00:30:32;;;;;;;15.30;10.63;;;3.80;1.00;;;;;;5101257;28;20463;-61
2022/03/15 00:33:04;;;;;;;18.73;9.50;;;3.80;1.00;;;;;;5101375;28;20963;-61
2022/03/15 00:35:33;;;;;;;14.17;9.97;;;3.70;1.00;;;;;;5100928;28;20534;-61
2022/03/15 00:38:04;;;;;;;12.70;10.43;;;3.70;93.40;;;;;;5100520;28;20464;-61
2022/03/15 00:40:38;;;;;;;16.30;10.50;;;3.70;1.00;;;;;;5100828;28;20533;-61
2022/03/15 00:43:10;;;;;;;13.40;10.60;;;3.60;1.00;;;;;;5100646;28;20464;-61
2022/03/15 00:45:40;;;;;;;12.77;10.83;;;3.60;1.00;;;;;;5100643;28;20460;-61
2022/03/15 00:48:15;;;;;;;12.00;10.40;;;3.60;1.00;;;;;;5100414;28;20488;-61
2022/03/15 00:50:42;;;;;;;16.53;11.50;;;3.70;1.00;;;;;;5100780;28;20463;-60
2022/03/15 00:53:12;;;;;;;14.00;10.27;;;3.60;1.00;;;;;;5085049;28;20793;-61
2022/03/15 00:55:39;;;;;;;17.33;10.47;;;3.70;81.60;;;;;;5080324;28;20955;-61
2022/03/15 00:58:12;;;;;;;14.97;10.87;;;3.60;40.10;;;;;;5092617;28;20456;-61
2022/03/15 01:00:39;;;;;;;22.07;14.60;;;3.60;99.90;;;;;;5100355;28;20460;-61
2022/03/15 01:03:21;;;;;;;31.30;17.87;;;3.60;1.00;;;;;;5098786;28;20468;-61
2022/03/15 01:05:48;;;;;;;23.90;15.73;;;3.50;92.70;;;;;;5096867;28;20488;-61
2022/03/15 01:08:15;;;;;;;18.57;12.87;;;3.50;48.20;;;;;;5099804;28;20496;-61
2022/03/15 01:10:45;;;;;;;13.93;11.50;;;3.60;99.90;;;;;;5100327;28;20840;-61
2022/03/15 01:13:23;;;;;;;16.10;10.87;;;3.60;99.90;;;;;;5099781;28;20791;-61
2022/03/15 01:15:59;;;;;;;18.60;12.30;;;3.60;99.90;;;;;;5100314;28;20471;-61
2022/03/15 01:18:31;;;;;;;16.17;12.20;;;3.50;99.90;;;;;;5097890;28;20551;-61
2022/03/15 01:20:58;;;;;;;13.47;11.20;;;3.50;99.90;;;;;;5099670;28;20755;-61
2022/03/15 01:23:33;;;;;;;12.40;10.80;;;3.50;99.90;;;;;;5099810;28;20893;-61
2022/03/15 01:26:03;;;;;;;13.83;10.23;;;3.40;99.90;;;;;;5100102;28;20467;-61
2022/03/15 01:28:38;;;;;;;12.83;10.40;;;3.40;1.00;;;;;;5099417;28;20490;-61
2022/03/15 01:31:11;;;;;;;13.10;10.87;;;3.40;1.00;;;;;;5099631;28;20460;-61
2022/03/15 01:33:42;;;;;;;14.43;10.73;;;3.40;1.00;;;;;;5099020;28;20460;-61
2022/03/15 01:36:09;;;;;;;13.30;9.93;;;3.40;87.30;;;;;;5099676;28;20525;-61
2022/03/15 01:38:44;;;;;;;13.23;10.10;;;3.40;99.90;;;;;;5099908;28;20907;-61
2022/03/15 01:41:16;;;;;;;18.30;11.00;;;3.40;99.90;;;;;;5099054;28;20465;-61
2022/03/15 01:43:43;;;;;;;14.03;10.80;;;3.40;1.00;;;;;;5099174;28;20517;-61
2022/03/15 01:46:10;;;;;;;13.80;11.00;;;3.40;1.00;;;;;;5099465;28;20893;-61
2022/03/15 01:48:42;;;;;;;19.30;12.47;;;3.40;1.00;;;;;;5099183;28;20485;-61
2022/03/15 01:51:14;;;;;;;14.70;10.27;;;3.40;1.00;;;;;;5099460;28;20460;-61
2022/03/15 01:53:50;;;;;;;11.97;10.73;;;3.40;99.90;;;;;;5098741;28;20460;-60
2022/03/15 01:56:21;;;;;;;13.90;10.90;;;3.40;99.90;;;;;;5096585;28;20909;-61
2022/03/15 01:58:48;;;;;;;16.77;10.27;;;3.40;99.90;;;;;;5098813;28;20449;-61
2022/03/15 02:01:17;;;;;;;14.70;11.07;;;3.40;99.90;;;;;;5099309;28;20460;-61
2022/03/15 02:03:44;;;;;;;20.17;10.23;;;3.40;99.90;;;;;;5097479;28;21334;-61
2022/03/15 02:06:13;;;;;;;16.63;11.73;;;3.40;99.90;;;;;;5098651;28;20901;-61
2022/03/15 02:08:40;;;;;;;12.67;10.90;;;3.40;1.00;;;;;;5099233;28;20555;-61
2022/03/15 02:11:10;;;;;;;13.83;10.30;;;3.30;99.90;;;;;;5097700;28;20506;-61
2022/03/15 02:13:40;;;;;;;15.43;10.83;;;3.30;13.60;;;;;;5098331;28;20478;-61
2022/03/15 02:16:12;;;;;;;14.70;10.40;;;3.30;50.00;;;;;;5099432;28;20553;-61
2022/03/15 02:18:44;;;;;;;14.53;10.10;;;3.30;1.00;;;;;;5098895;28;20456;-62
2022/03/15 02:21:16;;;;;;;12.00;10.40;;;3.30;99.90;;;;;;5098592;28;20559;-61
2022/03/15 02:23:48;;;;;;;19.90;12.20;;;3.30;99.90;;;;;;5098737;28;20547;-62
2022/03/15 02:26:21;;;;;;;13.20;9.40;;;3.40;99.90;;;;;;5099282;28;20517;-61
2022/03/15 02:28:48;;;;;;;16.80;11.13;;;3.40;99.90;;;;;;5098681;28;20492;-61
2022/03/15 02:31:15;;;;;;;14.77;10.77;;;3.30;99.90;;;;;;5099020;28;20460;-61
2022/03/15 02:33:43;;;;;;;14.77;11.07;;;3.30;99.90;;;;;;5098690;28;20640;-62
2022/03/15 02:36:17;;;;;;;13.43;10.73;;;3.30;99.90;;;;;;5099415;28;20464;-61
2022/03/15 02:38:50;;;;;;;13.27;9.63;;;3.30;99.90;;;;;;5099156;28;20452;-62
2022/03/15 02:41:17;;;;;;;12.47;10.63;;;3.30;99.90;;;;;;5098762;28;20721;-61
2022/03/15 02:43:47;;;;;;;12.47;10.50;;;3.30;99.90;;;;;;5099383;28;20482;-61
2022/03/15 02:46:17;;;;;;;12.97;10.20;;;3.30;98.70;;;;;;5098877;28;20816;-61
2022/03/15 02:48:49;;;;;;;12.17;10.30;;;3.30;1.20;;;;;;5099307;28;20522;-62
2022/03/15 02:51:19;;;;;;;12.50;9.70;;;3.30;1.00;;;;;;5098917;28;20518;-61
2022/03/15 02:53:53;;;;;;;13.40;10.60;;;3.30;99.90;;;;;;5099082;28;20773;-61
2022/03/15 02:56:24;;;;;;;13.70;11.07;;;3.40;99.90;;;;;;5099389;28;20463;-61
2022/03/15 02:58:51;;;;;;;11.43;8.97;;;3.40;1.00;;;;;;5094652;28;20732;-61
2022/03/15 03:01:21;;;;;;;18.97;10.13;;;3.40;1.00;;;;;;5078744;28;20530;-61
2022/03/15 03:03:54;;;;;;;15.30;10.70;;;3.30;1.00;;;;;;5076103;28;20498;-61
2022/03/15 03:06:23;;;;;;;11.10;9.40;;;3.40;1.00;;;;;;5096250;28;20513;-61
2022/03/15 03:08:53;;;;;;;13.97;11.13;;;3.40;1.00;;;;;;5097874;28;20492;-61
2022/03/15 03:11:20;;;;;;;14.00;11.07;;;3.40;1.00;;;;;;5091953;28;20891;-61
2022/03/15 03:14:00;;;;;;;11.83;9.87;;;3.40;1.00;;;;;;5077690;28;20895;-61
2022/03/15 03:16:29;;;;;;;12.50;9.47;;;3.40;99.90;;;;;;5078635;28;20948;-61
2022/03/15 03:19:00;;;;;;;12.50;10.33;;;3.40;99.90;;;;;;5078139;28;20909;-62
2022/03/15 03:21:30;;;;;;;12.80;10.30;;;3.40;6.80;;;;;;5078397;28;20461;-61
2022/03/15 03:24:01;;;;;;;14.70;9.43;;;3.40;1.00;;;;;;5084640;28;20799;-62
2022/03/15 03:26:30;;;;;;;12.70;10.70;;;3.40;1.00;;;;;;5078832;28;20881;-62
2022/03/15 03:29:00;;;;;;;12.43;10.07;;;3.50;1.00;;;;;;5091246;28;20488;-61
2022/03/15 03:31:33;;;;;;;13.73;9.60;;;3.50;1.00;;;;;;5099079;28;20464;-61
2022/03/15 03:34:02;;;;;;;14.07;10.40;;;3.40;1.00;;;;;;5083094;28;20465;-62
2022/03/15 03:36:32;;;;;;;15.60;11.87;;;3.50;1.00;;;;;;5076144;28;20465;-62
2022/03/15 03:39:01;;;;;;;13.97;10.00;;;3.50;1.00;;;;;;5076910;28;20781;-62
2022/03/15 03:41:28;;;;;;;13.40;9.63;;;3.50;1.00;;;;;;5076830;28;20461;-62
2022/03/15 03:43:58;;;;;;;14.37;10.70;;;3.50;28.00;;;;;;5077657;28;20828;-62
2022/03/15 03:46:31;;;;;;;12.67;10.03;;;3.50;1.00;;;;;;5077463;28;20440;-61
2022/03/15 03:49:00;;;;;;;12.03;10.17;;;3.40;38.90;;;;;;5078529;28;20496;-62
2022/03/15 03:51:27;;;;;;;11.93;9.80;;;3.50;99.90;;;;;;5078225;28;20828;-62
2022/03/15 03:53:57;;;;;;;13.67;10.37;;;3.50;99.90;;;;;;5078227;28;20465;-61
2022/03/15 03:56:27;;;;;;;15.13;10.37;;;3.50;99.90;;;;;;5077878;28;20485;-62
2022/03/15 03:58:54;;;;;;;14.60;10.80;;;3.50;99.90;;;;;;5078182;28;20464;-62
2022/03/15 04:01:24;;;;;;;14.43;9.90;;;3.40;1.00;;;;;;5095882;28;20904;-62
2022/03/15 04:03:51;;;;;;;13.87;10.03;;;3.50;1.00;;;;;;5097153;28;20532;-62
2022/03/15 04:06:21;;;;;;;11.43;9.57;;;3.50;1.00;;;;;;5095671;28;20468;-62
2022/03/15 04:08:48;;;;;;;13.97;10.50;;;3.40;99.90;;;;;;5090590;28;20460;-62
2022/03/15 04:11:19;;;;;;;17.77;10.77;;;3.40;99.90;;;;;;5090408;28;20818;-62
2022/03/15 04:13:49;;;;;;;15.73;11.80;;;3.50;99.90;;;;;;5097400;28;20464;-61
2022/03/15 04:16:16;;;;;;;14.90;10.80;;;3.50;1.00;;;;;;5097913;28;20467;-62
2022/03/15 04:18:46;;;;;;;14.23;11.17;;;3.50;1.00;;;;;;5096942;28;20750;-61
2022/03/15 04:21:13;;;;;;;19.57;10.67;;;3.50;1.00;;;;;;5098022;28;20457;-62
2022/03/15 04:23:48;;;;;;;15.43;10.20;;;3.60;1.00;;;;;;5097131;28;20461;-61
2022/03/15 04:26:18;;;;;;;13.23;10.23;;;3.60;99.90;;;;;;5077529;28;20467;-62
2022/03/15 04:28:48;;;;;;;12.70;10.13;;;3.60;99.90;;;;;;5077308;28;20461;-62
2022/03/15 04:31:15;;;;;;;11.40;9.67;;;3.60;99.90;;;;;;5077760;28;20469;-61
2022/03/15 04:33:42;;;;;;;14.00;9.80;;;3.60;99.90;;;;;;5077739;28;20464;-61
2022/03/15 04:36:10;;;;;;;10.37;8.93;;;3.70;1.00;;;;;;5080656;28;20461;-62
2022/03/15 04:38:39;;;;;;;16.17;10.07;;;3.70;99.90;;;;;;5080624;28;20461;-62
2022/03/15 04:41:06;;;;;;;17.07;10.80;;;3.80;96.60;;;;;;5082430;28;20603;-62
2022/03/15 04:43:38;;;;;;;16.60;11.27;;;3.70;99.90;;;;;;5100885;28;20461;-62
2022/03/15 04:46:11;;;;;;;11.47;9.13;;;3.80;1.00;;;;;;5095568;28;20764;-62
2022/03/15 04:48:42;;;;;;;13.60;10.77;;;3.80;1.00;;;;;;5100866;28;20470;-62
2022/03/15 04:51:09;;;;;;;14.77;10.17;;;3.80;1.00;;;;;;5100971;28;20545;-62
2022/03/15 04:53:37;;;;;;;20.97;10.33;;;3.80;99.90;;;;;;5100573;28;20457;-62
2022/03/15 04:56:12;;;;;;;15.57;11.20;;;3.80;99.90;;;;;;5100624;28;20492;-62
2022/03/15 04:58:41;;;;;;;18.03;11.77;;;3.80;48.20;;;;;;5100518;28;20541;-62
2022/03/15 05:01:08;;;;;;;20.07;13.00;;;3.70;1.00;;;;;;5091471;28;20453;-62
2022/03/15 05:03:40;;;;;;;14.87;11.60;;;3.70;99.90;;;;;;5079849;28;20461;-62
2022/03/15 05:06:07;;;;;;;17.37;12.30;;;3.70;1.00;;;;;;5081744;28;20847;-62
2022/03/15 05:08:39;;;;;;;14.80;10.77;;;3.70;1.00;;;;;;5099405;28;20455;-61
2022/03/15 05:11:07;;;;;;;14.67;10.30;;;3.80;1.00;;;;;;5098808;28;20493;-62
2022/03/15 05:13:36;;;;;;;13.67;10.10;;;3.90;99.90;;;;;;5088497;28;20507;-62
2022/03/15 05:16:05;;;;;;;15.70;10.57;;;3.90;99.90;;;;;;5100330;28;20828;-62
2022/03/15 05:18:37;;;;;;;15.53;9.43;;;4.00;99.90;;;;;;5099144;28;20461;-62
2022/03/15 05:21:12;;;;;;;12.27;9.77;;;4.00;1.00;;;;;;5100127;28;20814;-62
2022/03/15 05:23:40;;;;;;;13.00;9.07;;;4.10;1.00;;;;;;5100231;28;20506;-61
2022/03/15 05:26:07;;;;;;;11.63;9.70;;;4.10;99.90;;;;;;5084823;28;20458;-61
2022/03/15 05:28:42;;;;;;;10.70;9.23;;;4.10;99.90;;;;;;5088563;28;20464;-61
2022/03/15 05:31:13;;;;;;;12.37;10.13;;;4.00;7.50;;;;;;5099351;28;20488;-61
2022/03/15 05:33:43;;;;;;;14.70;10.00;;;4.00;12.00;;;;;;5098853;28;20457;-61
2022/03/15 05:36:11;;;;;;;13.30;9.30;;;4.00;12.10;;;;;;5099192;28;20559;-61
2022/03/15 05:38:38;;;;;;;15.10;9.40;;;3.90;35.40;;;;;;5099344;28;20463;-61
2022/03/15 05:41:08;;;;;;;11.30;9.47;;;3.90;37.70;;;;;;5099408;28;20571;-61
2022/03/15 05:43:41;;;;;;;14.50;9.77;;;4.00;99.90;;;;;;5097792;28;20496;-61
2022/03/15 05:46:09;;;;;;;13.83;9.87;;;4.10;1.00;;;;;;5091825;28;20469;-61
2022/03/15 05:48:38;;;;;;;13.80;8.80;;;4.10;1.00;;;;;;5078248;28;20461;-61
2022/03/15 05:51:10;;;;;;;16.90;9.10;;;4.10;1.00;;;;;;5090134;28;20523;-61
2022/03/15 05:53:40;;;;;;;13.43;10.33;;;4.10;1.00;;;;;;5098972;28;20510;-61
2022/03/15 05:56:11;;;;;;;10.87;9.00;;;4.00;1.00;;;;;;5099238;28;20464;-61
2022/03/15 05:58:39;;;;;;;14.73;9.30;;;4.00;1.00;;;;;;5088561;28;20463;-61
2022/03/15 06:01:09;;;;;;;13.03;9.37;;;4.00;1.00;;;;;;5088366;28;20488;-61
2022/03/15 06:03:43;;;;;;;14.93;9.30;;;3.90;1.00;;;;;;5098411;28;20465;-61
2022/03/15 06:06:10;;;;;;;13.53;9.60;;;3.90;91.80;;;;;;5098358;28;20457;-61
2022/03/15 06:08:37;;;;;;;11.70;8.97;;;4.00;99.90;;;;;;5097165;28;20551;-61
2022/03/15 06:11:11;;;;;;;12.27;8.57;;;4.00;99.90;;;;;;5098598;28;20492;-61
2022/03/15 06:13:41;;;;;;;15.30;9.20;;;4.10;99.90;;;;;;5099518;28;20456;-61
2022/03/15 06:16:11;;;;;;;11.57;8.90;;;4.10;27.10;;;;;;5098629;28;20478;-61
2022/03/15 06:18:59;;;;;;;13.20;9.13;;;4.10;1.00;;;;;;5098902;28;20456;-61
2022/03/15 06:21:34;;;;;;;12.60;9.73;;;4.20;1.00;;;;;;5092821;28;20449;-61
2022/03/15 06:24:05;;;;;;;11.57;8.37;;;4.20;1.00;;;;;;5088952;28;20519;-62
2022/03/15 06:26:37;;;;;;;10.70;8.60;;;4.20;1.00;;;;;;5085042;28;20459;-62
2022/03/15 06:29:05;;;;;;;11.13;8.60;;;4.20;1.00;;;;;;5087073;28;20484;-62
2022/03/15 06:31:41;;;;;;;13.23;8.90;;;4.30;1.00;;;;;;5087191;28;20484;-61
2022/03/15 06:34:10;;;;;;;14.87;9.00;;;4.40;1.00;;;;;;5087909;28;21118;-61
2022/03/15 06:36:40;;;;;;;11.80;9.40;;;4.50;1.00;;;;;;5085967;28;20610;-61
2022/03/15 06:39:13;;;;;;;13.90;10.43;;;4.50;1.00;;;;;;5077385;28;20799;-61
2022/03/15 06:41:43;;;;;;;19.23;12.03;;;4.60;99.90;;;;;;5076359;28;20469;-61
2022/03/15 06:44:11;;;;;;;14.67;12.13;;;4.70;99.90;;;;;;5078611;28;20468;-62
2022/03/15 06:46:41;;;;;;;14.53;10.77;;;4.70;99.90;;;;;;5093105;28;20460;-61
2022/03/15 06:49:13;;;;;;;20.23;13.57;;;4.80;99.90;;;;;;5094561;28;20897;-62
2022/03/15 06:51:40;;;;;;;16.67;13.30;;;4.80;99.90;;;;;;5079127;28;21515;-61
2022/03/15 06:54:11;;;;;;;15.50;11.50;;;4.90;99.90;;;;;;5097454;28;20468;-61
2022/03/15 06:56:42;;;;;;;14.23;11.30;;;4.90;99.90;;;;;;5093650;28;20469;-61
2022/03/15 06:59:14;;;;;;;20.33;15.30;;;4.90;99.90;;;;;;5076345;28;20538;-61
2022/03/15 07:01:45;;;;;;;15.30;12.80;;;5.00;99.90;;;;;;5086195;28;20493;-61
2022/03/15 07:04:18;;;;;;;12.80;10.80;;;4.90;84.30;;;;;;5090584;28;20489;-61
2022/03/15 07:06:56;;;;;;;12.53;10.70;;;5.00;42.90;;;;;;5086302;28;20475;-61
2022/03/15 07:09:33;;;;;;;15.67;10.67;;;5.10;66.20;;;;;;5092691;28;20468;-61
2022/03/15 07:12:04;;;;;;;12.17;9.63;;;5.20;96.90;;;;;;5089237;28;20518;-61
2022/03/15 07:14:40;;;;;;;12.63;10.20;;;5.30;99.90;;;;;;5097211;28;20555;-61
2022/03/15 07:17:22;;;;;;;14.30;10.77;;;5.30;99.90;;;;;;5083260;28;20757;-61
2022/03/15 07:19:51;;;;;;;16.50;10.57;;;5.40;99.90;;;;;;5080663;28;20476;-61
2022/03/15 07:22:18;;;;;;;10.50;8.97;;;5.50;99.90;;;;;;5092726;28;20612;-61
2022/03/15 07:24:54;;;;;;;13.90;10.20;;;5.50;99.90;;;;;;5095976;28;20464;-61
2022/03/15 07:27:22;;;;;;;12.20;10.43;;;5.50;99.90;;;;;;5078819;28;20842;-61
2022/03/15 07:29:49;;;;;;;14.20;8.73;;;5.60;43.40;;;;;;5077557;28;20468;-61
2022/03/15 07:32:41;;;;;;;16.03;9.27;;;5.60;27.90;;;;;;5076960;28;20461;-61
2022/03/15 07:35:10;;;;;;;11.10;8.67;;;5.70;43.90;;;;;;5077569;28;20468;-61
2022/03/15 07:37:37;;;;;;;9.90;8.50;;;5.90;47.00;;;;;;5076341;28;20914;-61
2022/03/15 07:40:08;;;;;;;10.20;7.40;;;5.90;1.50;;;;;;5077112;28;21135;-61
2022/03/15 07:42:40;;;;;;;13.27;8.37;;;6.00;1.00;;;;;;5086168;28;20467;-61
2022/03/15 07:45:15;;;;;;;12.90;8.70;;;6.10;1.00;;;;;;5096389;28;20460;-61
2022/03/15 07:47:47;;;;;;;13.13;8.30;;;6.20;1.00;;;;;;5096241;28;20456;-62
2022/03/15 07:50:16;;;;;;;11.37;9.67;;;6.30;1.00;;;;;;5096158;28;20821;-61
2022/03/15 07:52:55;;;;;;;14.80;10.40;;;6.40;1.00;;;;;;5090422;28;20981;-61
2022/03/15 07:55:34;;;;;;;11.23;8.53;;;6.40;1.00;;;;;;5076820;28;20465;-61
2022/03/15 07:58:03;;;;;;;12.40;9.37;;;6.40;1.00;;;;;;5076744;28;20958;-60
2022/03/15 08:00:40;;;;;;;13.67;10.00;;;6.50;1.00;;;;;;5081130;28;20769;-61
2022/03/15 08:03:11;;;;;;;13.83;9.70;;;6.50;1.00;;;;;;5076368;28;20770;-61
2022/03/15 08:05:48;;;;;;;13.00;9.33;;;6.60;1.00;;;;;;5076465;28;20492;-61
2022/03/15 08:08:20;;;;;;;16.27;8.83;;;6.60;1.00;;;;;;5075864;28;20510;-61
2022/03/15 08:10:49;;;;;;;11.63;9.10;;;6.60;1.00;;;;;;5080250;28;20496;-61
2022/03/15 08:13:19;;;;;;;10.80;8.63;;;6.60;1.00;;;;;;5079448;28;20561;-61
2022/03/15 08:15:48;;;;;;;14.77;8.73;;;6.60;1.00;;;;;;5079929;28;20510;-61
2022/03/15 08:18:28;;;;;;;12.40;9.20;;;6.70;1.00;;;;;;5079854;28;20560;-61
2022/03/15 08:20:59;;;;;;;14.70;9.30;;;6.70;1.00;;;;;;5079585;28;20457;-61
2022/03/15 08:23:29;;;;;;;14.17;9.60;;;6.60;1.00;;;;;;5085790;28;20788;-61
2022/03/15 08:25:58;;;;;;;13.70;9.90;;;6.60;1.00;;;;;;5099151;28;20468;-61
2022/03/15 08:28:28;;;;;;;10.30;9.07;;;6.70;1.00;;;;;;5089010;28;20944;-61
2022/03/15 08:30:58;;;;;;;13.37;9.30;;;6.80;1.00;;;;;;5095031;28;20498;-61
2022/03/15 08:33:28;;;;;;;12.27;9.77;;;6.90;1.00;;;;;;5092843;28;20460;-61
2022/03/15 08:35:59;;;;;;;12.43;9.30;;;6.90;1.00;;;;;;5098782;28;20768;-60
2022/03/15 08:38:28;;;;;;;15.80;10.13;;;7.10;1.00;;;;;;5098662;28;20456;-61
2022/03/15 08:40:56;;;;;;;9.97;8.97;;;7.20;1.00;;;;;;5079619;28;20449;-61
2022/03/15 08:43:28;;;;;;;12.13;8.77;;;7.30;1.00;;;;;;5078170;28;20959;-61
2022/03/15 08:45:55;;;;;;;12.00;8.80;;;7.40;1.00;;;;;;5078925;28;20460;-61
2022/03/15 08:48:33;;;;;;;11.43;9.37;;;7.50;1.00;;;;;;5079171;28;20461;-61
2022/03/15 08:51:09;;;;;;;19.53;9.90;;;7.60;1.00;;;;;;5079234;28;20546;-60
2022/03/15 08:53:42;;;;;;;12.97;9.30;;;7.70;1.00;;;;;;5097368;28;20456;-61
2022/03/15 08:56:12;;;;;;;13.53;9.83;;;7.70;1.00;;;;;;5087988;28;20456;-60
2022/03/15 08:58:40;;;;;;;13.27;8.10;;;7.80;1.00;;;;;;5082487;28;20532;-60
2022/03/15 09:01:07;;;;;;;11.73;8.33;;;7.90;1.00;;;;;;5078981;28;20802;-61
2022/03/15 09:03:43;;;;;;;10.00;7.00;;;8.10;1.00;;;;;;5079327;28;20878;-60
2022/03/15 09:06:21;;;;;;;14.10;7.90;;;8.20;1.00;;;;;;5079207;28;20762;-60
2022/03/15 09:08:52;;;;;;;9.30;7.83;;;8.30;1.00;;;;;;5078382;28;20431;-60
2022/03/15 09:11:22;;;;;;;9.70;7.03;;;8.40;1.00;;;;;;5078681;28;20493;-60
2022/03/15 09:13:52;;;;;;;11.13;7.77;;;8.60;1.00;;;;;;5078842;28;20465;-60
2022/03/15 09:16:20;;;;;;;9.07;6.63;;;8.60;1.00;;;;;;5079100;28;20465;-60
2022/03/15 09:18:47;;;;;;;8.43;6.27;;;8.70;1.00;;;;;;5078899;28;20500;-59
2022/03/15 09:21:20;;;;;;;12.47;5.90;;;8.70;1.00;;;;;;5078127;28;20797;-58
2022/03/15 09:23:51;;;;;;;7.73;6.67;;;8.80;1.00;;;;;;5088348;28;20466;-59
2022/03/15 09:26:18;;;;;;;10.80;6.33;;;8.90;1.00;;;;;;5078250;28;20469;-60
2022/03/15 09:28:45;;;;;;;7.50;5.50;;;9.00;1.00;;;;;;5079013;28;20461;-60
2022/03/15 09:31:12;;;;;;;11.90;5.90;;;9.10;1.00;;;;;;5078727;28;20918;-60
2022/03/15 09:33:44;;;;;;;12.83;6.93;;;9.10;1.00;;;;;;5077686;28;20842;-60
2022/03/15 09:36:12;;;;;;;7.47;6.77;;;9.20;1.00;;;;;;5078598;28;20799;-60
2022/03/15 09:38:50;;;;;;;10.50;6.20;;;9.20;1.00;;;;;;5078092;28;20876;-60
2022/03/15 09:41:21;;;;;;;10.37;6.20;;;9.40;1.00;;;;;;5079067;28;20457;-60
2022/03/15 09:43:49;;;;;;;6.83;5.23;;;9.40;1.00;;;;;;5078421;28;20497;-59
2022/03/15 09:46:28;;;;;;;8.40;5.20;;;9.50;1.00;;;;;;5078277;28;20514;-59
2022/03/15 09:49:02;;;;;;;11.87;5.10;;;9.60;1.00;;;;;;5078686;28;20464;-59
2022/03/15 09:54:33;;;;;;;6.50;5.67;;;9.70;1.00;;;;;;5091411;28;20879;-59
2022/03/15 09:57:02;;;;;;;8.03;5.80;;;9.90;1.00;;;;;;5078346;28;20464;-59
2022/03/15 09:59:35;;;;;;;8.77;5.63;;;9.90;99.90;;;;;;5078354;28;20865;-59
2022/03/15 10:02:04;;;;;;;10.17;9.03;;;9.90;99.90;;;;;;5077903;28;20461;-58
2022/03/15 10:04:40;;;;;;;6.50;5.57;;;10.00;99.90;;;;;;5086707;28;20857;-57
2022/03/15 10:07:14;;;;;;;10.60;7.90;;;10.10;99.90;;;;;;5078591;28;20461;-58
2022/03/15 10:09:46;;;;;;;9.47;5.03;;;10.20;99.90;;;;;;5078505;28;20465;-58
2022/03/15 10:12:13;;;;;;;7.10;4.13;;;10.30;99.90;;;;;;5077938;28;20926;-59
2022/03/15 10:14:50;;;;;;;9.60;5.53;;;10.30;99.90;;;;;;5077702;28;20527;-59
2022/03/15 10:17:19;;;;;;;11.93;6.23;;;10.40;99.90;;;;;;5078116;28;20542;-59
2022/03/15 10:19:53;;;;;;;9.77;5.10;;;10.40;99.90;;;;;;5077179;28;20466;-59
2022/03/15 10:22:28;;;;;;;5.83;4.20;;;10.30;99.90;;;;;;5077477;28;20453;-59
2022/03/15 10:24:59;;;;;;;7.90;4.53;;;10.30;99.90;;;;;;5078030;28;20469;-58
2022/03/15 10:27:36;;;;;;;5.97;3.83;;;10.30;99.90;;;;;;5092767;28;20823;-58
2022/03/15 10:30:05;;;;;;;5.67;4.03;;;10.40;99.90;;;;;;5098368;28;20492;-59
2022/03/15 10:32:35;;;;;;;8.53;4.30;;;10.50;99.90;;;;;;5097001;28;20484;-59
2022/03/15 10:35:09;;;;;;;6.40;4.97;;;10.50;99.90;;;;;;5096252;28;20518;-59
2022/03/15 10:37:41;;;;;;;5.43;4.13;;;10.70;99.90;;;;;;5096622;28;20478;-58
2022/03/15 10:40:15;;;;;;;5.10;4.60;;;10.80;99.90;;;;;;5076105;28;20461;-59
2022/03/15 10:42:44;;;;;;;5.80;3.93;;;10.80;99.90;;;;;;5096707;28;20917;-59
2022/03/15 10:45:19;;;;;;;5.10;3.93;;;10.70;99.90;;;;;;5095598;28;20551;-59
2022/03/15 10:47:52;;;;;;;6.93;4.10;;;10.70;99.90;;;;;;5092703;28;20465;-59
2022/03/15 10:50:23;;;;;;;5.33;3.70;;;10.70;99.90;;;;;;5086403;28;20472;-59
2022/03/15 10:53:06;;;;;;;6.97;3.83;;;10.70;99.90;;;;;;5091519;28;20533;-59
2022/03/15 10:55:37;;;;;;;4.83;3.73;;;10.70;99.90;;;;;;5077236;28;20489;-59
2022/03/15 10:58:12;;;;;;;6.57;4.37;;;10.90;99.90;;;;;;5079210;28;20468;-58
2022/03/15 11:00:53;;;;;;;6.50;4.40;;;10.90;99.90;;;;;;5094035;28;20943;-58
2022/03/15 11:03:29;;;;;;;6.67;3.47;;;10.90;99.90;;;;;;5085437;28;20472;-57
2022/03/15 11:06:07;;;;;;;4.00;3.50;;;11.00;99.90;;;;;;5075413;28;20493;-59
2022/03/15 11:08:34;;;;;;;10.73;4.93;;;10.90;99.90;;;;;;5083867;28;20539;-59
2022/03/15 11:11:06;;;;;;;6.90;4.27;;;11.00;99.90;;;;;;5095984;28;20461;-59
2022/03/15 11:13:33;;;;;;;4.13;3.63;;;11.00;99.90;;;;;;5095651;28;20468;-59
2022/03/15 11:16:11;;;;;;;5.10;3.93;;;11.00;99.90;;;;;;5089292;28;20472;-58
2022/03/15 11:18:41;;;;;;;6.60;4.40;;;11.10;99.90;;;;;;5077576;28;20743;-59
2022/03/15 11:21:18;;;;;;;4.50;4.10;;;11.10;99.90;;;;;;5084262;28;20752;-59
2022/03/15 11:23:48;;;;;;;4.67;4.27;;;11.10;99.90;;;;;;5092062;28;20469;-59
2022/03/15 11:26:21;;;;;;;6.10;4.63;;;11.00;99.90;;;;;;5085704;28;20517;-59
2022/03/15 11:29:05;;;;;;;6.90;4.40;;;11.00;99.90;;;;;;5096732;28;20517;-59
2022/03/15 11:31:34;;;;;;;7.13;5.07;;;10.90;99.90;;;;;;5096914;28;20484;-59
2022/03/15 11:34:04;;;;;;;5.10;4.10;;;10.80;99.90;;;;;;5095877;28;20878;-59
2022/03/15 11:36:32;;;;;;;5.33;4.10;;;10.60;99.90;;;;;;5092168;28;20461;-59
2022/03/15 11:39:02;;;;;;;5.83;4.40;;;10.70;99.90;;;;;;5079156;28;20464;-59
2022/03/15 11:41:37;;;;;;;8.60;4.70;;;10.70;99.90;;;;;;5096279;28;20460;-59
2022/03/15 11:44:16;;;;;;;6.10;4.70;;;10.60;99.90;;;;;;5098214;28;20459;-59
2022/03/15 11:46:55;;;;;;;8.67;4.73;;;10.50;99.90;;;;;;5092952;28;20870;-59
2022/03/15 11:49:33;;;;;;;6.50;4.90;;;10.40;99.90;;;;;;5093284;28;20641;-59
2022/03/15 11:52:12;;;;;;;7.83;5.00;;;10.40;99.90;;;;;;5098297;28;20938;-60
2022/03/15 11:54:52;;;;;;;7.87;5.13;;;10.40;99.90;;;;;;5089707;28;20599;-61
2022/03/15 11:57:30;;;;;;;5.60;4.70;;;10.50;99.90;;;;;;5098392;28;20474;-61
2022/03/15 12:00:01;;;;;;;8.23;4.90;;;10.50;99.90;;;;;;5100827;28;20861;-61
2022/03/15 12:02:38;;;;;;;9.40;5.53;;;10.30;99.90;;;;;;5100960;28;20456;-61
2022/03/15 12:05:25;;;;;;;11.43;5.93;;;10.30;99.90;;;;;;5099213;28;20561;-61
2022/03/15 12:08:17;;;;;;;6.90;5.20;;;10.20;99.90;;;;;;5086001;28;20453;-61
2022/03/15 12:10:55;;;;;;;6.03;5.43;;;10.10;99.90;;;;;;5079219;28;20544;-60
2022/03/15 12:13:46;;;;;;;6.90;4.93;;;10.20;99.90;;;;;;5080200;28;20504;-60
2022/03/15 12:16:24;;;;;;;6.63;5.00;;;10.30;1.00;;;;;;5079567;28;20457;-61
2022/03/15 12:19:06;;;;;;;6.37;5.17;;;10.30;99.90;;;;;;5079935;28;20463;-61
2022/03/15 12:21:46;;;;;;;9.50;6.27;;;10.30;99.90;;;;;;5079746;28;20884;-61
2022/03/15 12:24:18;;;;;;;7.17;5.83;;;10.40;1.00;;;;;;5079673;28;20457;-61
2022/03/15 12:26:58;;;;;;;6.90;6.20;;;10.50;99.90;;;;;;5079306;28;20459;-61
2022/03/15 12:29:36;;;;;;;11.27;6.07;;;10.40;99.90;;;;;;5079903;28;20873;-61
2022/03/15 12:32:13;;;;;;;7.30;5.77;;;10.50;99.90;;;;;;5079594;28;20782;-60
2022/03/15 12:34:43;;;;;;;9.37;6.00;;;10.50;1.00;;;;;;5079591;28;20457;-60
2022/03/15 12:37:11;;;;;;;7.20;5.10;;;10.60;1.00;;;;;;5079887;28;20469;-60
2022/03/15 12:39:53;;;;;;;6.30;5.70;;;10.60;99.90;;;;;;5079909;28;20456;-60
2022/03/15 12:42:23;;;;;;;7.33;5.50;;;10.70;99.90;;;;;;5079372;28;20507;-60
2022/03/15 12:44:58;;;;;;;7.30;5.40;;;10.80;99.90;;;;;;5078664;28;20457;-60
2022/03/15 12:47:34;;;;;;;8.07;5.17;;;11.00;1.00;;;;;;5080163;28;20532;-60
2022/03/15 12:50:18;;;;;;;6.90;5.90;;;11.00;99.90;;;;;;5079316;28;20468;-60
2022/03/15 12:52:51;;;;;;;6.30;5.70;;;10.90;99.90;;;;;;5091431;28;20941;-60
2022/03/15 12:55:24;;;;;;;5.90;4.83;;;10.90;99.90;;;;;;5087809;28;20475;-60
2022/03/15 12:57:55;;;;;;;11.10;7.20;;;10.80;99.90;;;;;;5079206;28;20808;-60
2022/03/15 13:00:35;;;;;;;6.27;4.87;;;10.80;99.90;;;;;;5078821;28;20469;-60
2022/03/15 13:03:09;;;;;;;10.57;6.20;;;10.80;1.00;;;;;;5079007;28;20476;-60
2022/03/15 13:05:39;;;;;;;7.40;4.73;;;10.90;99.90;;;;;;5078790;28;20497;-60
2022/03/15 13:08:07;;;;;;;7.10;4.87;;;11.10;99.90;;;;;;5078559;28;20465;-60
2022/03/15 13:10:42;;;;;;;6.53;5.13;;;11.10;99.90;;;;;;5079349;28;20753;-61
2022/03/15 13:13:24;;;;;;;5.97;5.33;;;11.30;1.00;;;;;;5077948;28;20489;-61